ABR86D EIDW-EKCH
Flight info
| Callsign | ABR86D |
|---|---|
| Flight time | 1h 44m |
| Altitude | 31000 |
| Route | ENDEQ3J ENDEQ Q36 ALAVA Z195 MALUD UL975 WAL M16 NAPEX DCT LAMIX UT29 LIBSO UL975 ERDOW DCT ROPAL DCT LESRA DCT TESPI |
| Aircraft | A306/H-SDE3FGHIRWY/LB1 |
Departure
| Time | 2026-05-04 16:53 |
|---|---|
| Airport | Dublin Airport (EIDW) |
Arrival
| Time | 2026-05-04 18:37 |
|---|---|
| Airport | Copenhagen Kastrup Airport (EKCH) |
| Time | Latitude | Longitude | Altitude | Speed | Heading |
|---|---|---|---|---|---|
| 2026-05-04 16:15 | 53.42421 | -6.26199 | 217 ft | 0 kts | 185° |
| 2026-05-04 16:43 | 53.42456 | -6.26196 | 217 ft | 4 kts | 178° |
| 2026-05-04 16:43 | 53.42482 | -6.26200 | 219 ft | 4 kts | 167° |
| 2026-05-04 16:44 | 53.42515 | -6.26236 | 221 ft | 0 kts | 95° |
| 2026-05-04 16:48 | 53.42381 | -6.25948 | 224 ft | 21 kts | 229° |
| 2026-05-04 16:48 | 53.42276 | -6.26187 | 223 ft | 30 kts | 250° |
| 2026-05-04 16:49 | 53.42301 | -6.26962 | 217 ft | 33 kts | 274° |
| 2026-05-04 16:49 | 53.42342 | -6.27687 | 222 ft | 30 kts | 275° |
| 2026-05-04 16:50 | 53.42387 | -6.28473 | 217 ft | 38 kts | 275° |
| 2026-05-04 16:50 | 53.42335 | -6.29091 | 223 ft | 16 kts | 177° |
| 2026-05-04 16:51 | 53.42239 | -6.28954 | 225 ft | 0 kts | 96° |
| 2026-05-04 16:52 | 53.42154 | -6.27380 | 224 ft | 138 kts | 95° |
| 2026-05-04 16:52 | 53.42051 | -6.25479 | 452 ft | 178 kts | 96° |
| 2026-05-04 16:53 | 53.41847 | -6.21247 | 2123 ft | 206 kts | 92° |
| 2026-05-04 16:53 | 53.41391 | -6.12986 | 4266 ft | 260 kts | 94° |
| 2026-05-04 16:54 | 53.41214 | -6.09908 | 5224 ft | 269 kts | 95° |
| 2026-05-04 16:55 | 53.41424 | -5.97163 | 9515 ft | 283 kts | 83° |
| 2026-05-04 16:55 | 53.41880 | -5.90352 | 10878 ft | 314 kts | 83° |
| 2026-05-04 16:56 | 53.42397 | -5.82671 | 11666 ft | 342 kts | 83° |
| 2026-05-04 16:56 | 53.43208 | -5.70601 | 13425 ft | 353 kts | 83° |
| 2026-05-04 16:57 | 53.43483 | -5.66485 | 14012 ft | 356 kts | 83° |
| 2026-05-04 16:57 | 53.44035 | -5.58158 | 14940 ft | 361 kts | 83° |
| 2026-05-04 16:58 | 53.44525 | -5.45776 | 15045 ft | 339 kts | 91° |
| 2026-05-04 16:58 | 53.44410 | -5.41914 | 15135 ft | 321 kts | 92° |
| 2026-05-04 16:59 | 53.44177 | -5.34670 | 14937 ft | 303 kts | 92° |
| 2026-05-04 17:00 | 53.43822 | -5.20872 | 14473 ft | 268 kts | 92° |
| 2026-05-04 17:00 | 53.43425 | -5.11395 | 14020 ft | 273 kts | 89° |
| 2026-05-04 17:01 | 53.43391 | -5.05054 | 14483 ft | 268 kts | 83° |
| 2026-05-04 17:01 | 53.43436 | -4.98676 | 14594 ft | 279 kts | 89° |
| 2026-05-04 17:02 | 53.43306 | -4.92350 | 15100 ft | 274 kts | 95° |
| 2026-05-04 17:02 | 53.42765 | -4.85739 | 15085 ft | 306 kts | 96° |
| 2026-05-04 17:03 | 53.42562 | -4.82074 | 15244 ft | 323 kts | 94° |
| 2026-05-04 17:03 | 53.42418 | -4.78231 | 15484 ft | 337 kts | 92° |
| 2026-05-04 17:03 | 53.42182 | -4.70064 | 15960 ft | 363 kts | 92° |
| 2026-05-04 17:04 | 53.41919 | -4.61350 | 16409 ft | 385 kts | 92° |
| 2026-05-04 17:04 | 53.41606 | -4.52173 | 16837 ft | 406 kts | 93° |
| 2026-05-04 17:05 | 53.41260 | -4.42597 | 17664 ft | 414 kts | 93° |
| 2026-05-04 17:05 | 53.40901 | -4.32912 | 18548 ft | 419 kts | 93° |
| 2026-05-04 17:06 | 53.40532 | -4.23118 | 19373 ft | 422 kts | 92° |
| 2026-05-04 17:06 | 53.40344 | -4.18207 | 19738 ft | 424 kts | 93° |
| 2026-05-04 17:07 | 53.39961 | -4.08333 | 20525 ft | 426 kts | 93° |
| 2026-05-04 17:07 | 53.39831 | -4.05041 | 20723 ft | 428 kts | 93° |
| 2026-05-04 17:07 | 53.39633 | -3.98355 | 21228 ft | 430 kts | 89° |
| 2026-05-04 17:07 | 53.39748 | -3.93346 | 21574 ft | 432 kts | 86° |
| 2026-05-04 17:08 | 53.39942 | -3.88314 | 21924 ft | 433 kts | 85° |
| 2026-05-04 17:08 | 53.40441 | -3.78218 | 22612 ft | 436 kts | 84° |
| 2026-05-04 17:08 | 53.40708 | -3.73136 | 22958 ft | 438 kts | 84° |
| 2026-05-04 17:09 | 53.40973 | -3.68040 | 23282 ft | 439 kts | 84° |
| 2026-05-04 17:09 | 53.41198 | -3.62922 | 23597 ft | 441 kts | 88° |
| 2026-05-04 17:09 | 53.41152 | -3.57768 | 23880 ft | 443 kts | 91° |
| 2026-05-04 17:10 | 53.40794 | -3.47411 | 24373 ft | 446 kts | 93° |
| 2026-05-04 17:10 | 53.40068 | -3.31892 | 25104 ft | 450 kts | 94° |
| 2026-05-04 17:11 | 53.39822 | -3.26738 | 25333 ft | 451 kts | 94° |
| 2026-05-04 17:11 | 53.39570 | -3.21424 | 25564 ft | 452 kts | 93° |
| 2026-05-04 17:11 | 53.39089 | -3.10974 | 26013 ft | 454 kts | 93° |
| 2026-05-04 17:12 | 53.38881 | -3.05690 | 26237 ft | 455 kts | 92° |
| 2026-05-04 17:12 | 53.38493 | -2.95064 | 26645 ft | 458 kts | 92° |
| 2026-05-04 17:13 | 53.37894 | -2.79068 | 27418 ft | 457 kts | 92° |
| 2026-05-04 17:14 | 53.37262 | -2.63219 | 28331 ft | 453 kts | 92° |
| 2026-05-04 17:14 | 53.37047 | -2.57953 | 28635 ft | 452 kts | 92° |
| 2026-05-04 17:14 | 53.36615 | -2.47544 | 29196 ft | 450 kts | 92° |
| 2026-05-04 17:15 | 53.36391 | -2.42246 | 29515 ft | 449 kts | 92° |
| 2026-05-04 17:15 | 53.36022 | -2.33602 | 30035 ft | 447 kts | 92° |
| 2026-05-04 17:16 | 53.35219 | -2.21610 | 30594 ft | 446 kts | 97° |
| 2026-05-04 17:16 | 53.33849 | -2.07903 | 31040 ft | 446 kts | 98° |
| 2026-05-04 17:17 | 53.33314 | -2.02781 | 31049 ft | 446 kts | 98° |
| 2026-05-04 17:18 | 53.31173 | -1.82410 | 31051 ft | 446 kts | 98° |
| 2026-05-04 17:19 | 53.29002 | -1.61948 | 31044 ft | 446 kts | 98° |
| 2026-05-04 17:20 | 53.26804 | -1.41576 | 31048 ft | 447 kts | 98° |
| 2026-05-04 17:20 | 53.25125 | -1.26260 | 31049 ft | 447 kts | 99° |
| 2026-05-04 17:21 | 53.22856 | -1.05851 | 31045 ft | 447 kts | 99° |
| 2026-05-04 17:22 | 53.22174 | -0.95553 | 31044 ft | 449 kts | 88° |
| 2026-05-04 17:23 | 53.24563 | -0.80552 | 31046 ft | 451 kts | 61° |
| 2026-05-04 17:23 | 53.26324 | -0.76222 | 31048 ft | 450 kts | 51° |
| 2026-05-04 17:24 | 53.31872 | -0.63767 | 31050 ft | 444 kts | 62° |
| 2026-05-04 17:25 | 53.37294 | -0.45229 | 31049 ft | 444 kts | 65° |
| 2026-05-04 17:26 | 53.42511 | -0.26420 | 31047 ft | 444 kts | 65° |
| 2026-05-04 17:27 | 53.49062 | -0.03001 | 31047 ft | 445 kts | 65° |
| 2026-05-04 17:28 | 53.55445 | 0.14805 | 31043 ft | 449 kts | 50° |
| 2026-05-04 17:29 | 53.68006 | 0.38264 | 31045 ft | 449 kts | 49° |
| 2026-05-04 17:31 | 53.78456 | 0.57910 | 31045 ft | 449 kts | 49° |
| 2026-05-04 17:32 | 53.88861 | 0.77652 | 31044 ft | 449 kts | 49° |
| 2026-05-04 17:33 | 53.96492 | 0.94347 | 31048 ft | 449 kts | 55° |
| 2026-05-04 17:34 | 54.03684 | 1.11781 | 31047 ft | 452 kts | 55° |
| 2026-05-04 17:35 | 54.12685 | 1.33740 | 31047 ft | 452 kts | 55° |
| 2026-05-04 17:36 | 54.16279 | 1.42555 | 31044 ft | 452 kts | 55° |
| 2026-05-04 17:36 | 54.19867 | 1.51385 | 31045 ft | 452 kts | 55° |
| 2026-05-04 17:37 | 54.23446 | 1.60219 | 31291 ft | 452 kts | 55° |
| 2026-05-04 17:37 | 54.27024 | 1.69083 | 31302 ft | 459 kts | 55° |
| 2026-05-04 17:37 | 54.28831 | 1.73578 | 31527 ft | 458 kts | 55° |
| 2026-05-04 17:38 | 54.30629 | 1.78059 | 31726 ft | 456 kts | 55° |
| 2026-05-04 17:38 | 54.32426 | 1.82544 | 31910 ft | 456 kts | 55° |
| 2026-05-04 17:38 | 54.34213 | 1.87011 | 32089 ft | 455 kts | 55° |
| 2026-05-04 17:38 | 54.36004 | 1.91497 | 32265 ft | 455 kts | 55° |
| 2026-05-04 17:39 | 54.39572 | 2.00454 | 32619 ft | 454 kts | 56° |
| 2026-05-04 17:39 | 54.41352 | 2.04934 | 32789 ft | 454 kts | 56° |
| 2026-05-04 17:39 | 54.43128 | 2.09412 | 32955 ft | 453 kts | 56° |
| 2026-05-04 17:40 | 54.46678 | 2.18388 | 33048 ft | 454 kts | 56° |
| 2026-05-04 17:40 | 54.50225 | 2.27387 | 33050 ft | 456 kts | 55° |
| 2026-05-04 17:41 | 54.53770 | 2.36415 | 33048 ft | 457 kts | 56° |
| 2026-05-04 17:41 | 54.57325 | 2.45504 | 33047 ft | 457 kts | 56° |
| 2026-05-04 17:42 | 54.60878 | 2.54618 | 33046 ft | 458 kts | 56° |
| 2026-05-04 17:42 | 54.64422 | 2.63746 | 33045 ft | 458 kts | 56° |
| 2026-05-04 17:43 | 54.67964 | 2.72897 | 33046 ft | 457 kts | 56° |
| 2026-05-04 17:43 | 54.71486 | 2.82036 | 33045 ft | 456 kts | 56° |
| 2026-05-04 17:44 | 54.74990 | 2.91159 | 33050 ft | 461 kts | 56° |
| 2026-05-04 17:44 | 54.78549 | 3.00457 | 33048 ft | 463 kts | 56° |
| 2026-05-04 17:45 | 54.82110 | 3.09797 | 33049 ft | 463 kts | 56° |
| 2026-05-04 17:45 | 54.85661 | 3.19149 | 33048 ft | 463 kts | 56° |
| 2026-05-04 17:46 | 54.89202 | 3.28506 | 33042 ft | 464 kts | 56° |
| 2026-05-04 17:46 | 54.92737 | 3.37885 | 33039 ft | 464 kts | 56° |
| 2026-05-04 17:47 | 54.96244 | 3.47226 | 33044 ft | 464 kts | 56° |
| 2026-05-04 17:47 | 54.99783 | 3.56686 | 33041 ft | 468 kts | 56° |
| 2026-05-04 17:48 | 55.03330 | 3.66204 | 33049 ft | 468 kts | 56° |
| 2026-05-04 17:48 | 55.06874 | 3.75751 | 33046 ft | 468 kts | 56° |
| 2026-05-04 17:49 | 55.10412 | 3.85322 | 33049 ft | 468 kts | 56° |
| 2026-05-04 17:49 | 55.13789 | 3.95052 | 33045 ft | 469 kts | 64° |
| 2026-05-04 17:50 | 55.16014 | 4.05773 | 33047 ft | 470 kts | 75° |
| 2026-05-04 17:50 | 55.17557 | 4.16886 | 33046 ft | 470 kts | 77° |
| 2026-05-04 17:51 | 55.19014 | 4.28044 | 33053 ft | 470 kts | 77° |
| 2026-05-04 17:51 | 55.20453 | 4.39263 | 33046 ft | 473 kts | 77° |
| 2026-05-04 17:52 | 55.21883 | 4.50540 | 33048 ft | 475 kts | 77° |
| 2026-05-04 17:52 | 55.23297 | 4.61776 | 33046 ft | 476 kts | 77° |
| 2026-05-04 17:53 | 55.24711 | 4.73120 | 33039 ft | 476 kts | 77° |
| 2026-05-04 17:53 | 55.26113 | 4.84449 | 33040 ft | 476 kts | 77° |
| 2026-05-04 17:54 | 55.27505 | 4.95798 | 33035 ft | 476 kts | 77° |
| 2026-05-04 17:54 | 55.28886 | 5.07146 | 33033 ft | 476 kts | 77° |
| 2026-05-04 17:55 | 55.30256 | 5.18502 | 33034 ft | 476 kts | 78° |
| 2026-05-04 17:55 | 55.31616 | 5.29867 | 33033 ft | 476 kts | 78° |
| 2026-05-04 17:56 | 55.32966 | 5.41253 | 33035 ft | 476 kts | 78° |
| 2026-05-04 17:56 | 55.34306 | 5.52637 | 33041 ft | 476 kts | 78° |
| 2026-05-04 17:57 | 55.35635 | 5.64035 | 33029 ft | 476 kts | 78° |
| 2026-05-04 17:57 | 55.36944 | 5.75361 | 33029 ft | 476 kts | 78° |
| 2026-05-04 17:58 | 55.38251 | 5.86761 | 33026 ft | 476 kts | 78° |
| 2026-05-04 17:58 | 55.39553 | 5.98220 | 33025 ft | 479 kts | 78° |
| 2026-05-04 17:59 | 55.40847 | 6.09713 | 33024 ft | 479 kts | 78° |
| 2026-05-04 18:00 | 55.42557 | 6.25064 | 33029 ft | 480 kts | 78° |
| 2026-05-04 18:00 | 55.43830 | 6.36611 | 33028 ft | 481 kts | 79° |
| 2026-05-04 18:01 | 55.45094 | 6.48190 | 33031 ft | 481 kts | 79° |
| 2026-05-04 18:01 | 55.46346 | 6.59754 | 33025 ft | 480 kts | 79° |
| 2026-05-04 18:02 | 55.48203 | 6.77117 | 33017 ft | 480 kts | 79° |
| 2026-05-04 18:02 | 55.49427 | 6.88699 | 33020 ft | 480 kts | 79° |
| 2026-05-04 18:03 | 55.50641 | 7.00298 | 33021 ft | 480 kts | 79° |
| 2026-05-04 18:03 | 55.51843 | 7.11901 | 33019 ft | 481 kts | 79° |
| 2026-05-04 18:04 | 55.53028 | 7.23439 | 33017 ft | 481 kts | 79° |
| 2026-05-04 18:05 | 55.54692 | 7.40920 | 33015 ft | 481 kts | 84° |
| 2026-05-04 18:05 | 55.55547 | 7.52624 | 33026 ft | 481 kts | 79° |
| 2026-05-04 18:06 | 55.57385 | 7.70147 | 33008 ft | 485 kts | 79° |
| 2026-05-04 18:06 | 55.58560 | 7.81888 | 32998 ft | 485 kts | 79° |
| 2026-05-04 18:07 | 55.59712 | 7.93645 | 32993 ft | 485 kts | 80° |
| 2026-05-04 18:07 | 55.60849 | 8.05414 | 32993 ft | 485 kts | 80° |
| 2026-05-04 18:08 | 55.61968 | 8.17127 | 32997 ft | 485 kts | 80° |
| 2026-05-04 18:08 | 55.63082 | 8.28916 | 33002 ft | 485 kts | 80° |
| 2026-05-04 18:09 | 55.64928 | 8.52584 | 32989 ft | 485 kts | 84° |
| 2026-05-04 18:10 | 55.65584 | 8.64473 | 33001 ft | 485 kts | 84° |
| 2026-05-04 18:10 | 55.66220 | 8.76365 | 33001 ft | 485 kts | 84° |
| 2026-05-04 18:11 | 55.66843 | 8.88252 | 32995 ft | 485 kts | 84° |
| 2026-05-04 18:11 | 55.67454 | 9.00149 | 32997 ft | 485 kts | 84° |
| 2026-05-04 18:12 | 55.68053 | 9.12027 | 32999 ft | 484 kts | 84° |
| 2026-05-04 18:12 | 55.68640 | 9.23907 | 32997 ft | 483 kts | 85° |
| 2026-05-04 18:13 | 55.69215 | 9.35782 | 33000 ft | 483 kts | 85° |
| 2026-05-04 18:13 | 55.69774 | 9.47558 | 32190 ft | 482 kts | 85° |
| 2026-05-04 18:14 | 55.70055 | 9.53579 | 31257 ft | 485 kts | 85° |
| 2026-05-04 18:14 | 55.70328 | 9.59479 | 30376 ft | 488 kts | 85° |
| 2026-05-04 18:14 | 55.70602 | 9.65477 | 29379 ft | 490 kts | 85° |
| 2026-05-04 18:15 | 55.71149 | 9.77636 | 27068 ft | 498 kts | 85° |
| 2026-05-04 18:15 | 55.71691 | 9.89956 | 24953 ft | 502 kts | 85° |
| 2026-05-04 18:15 | 55.71955 | 9.96075 | 24435 ft | 491 kts | 85° |
| 2026-05-04 18:16 | 55.72211 | 10.02063 | 23895 ft | 483 kts | 85° |
| 2026-05-04 18:16 | 55.72460 | 10.07967 | 23204 ft | 478 kts | 85° |
| 2026-05-04 18:16 | 55.72704 | 10.13817 | 22474 ft | 473 kts | 85° |
| 2026-05-04 18:17 | 55.73175 | 10.25285 | 21041 ft | 464 kts | 86° |
| 2026-05-04 18:17 | 55.73404 | 10.30968 | 20367 ft | 460 kts | 86° |
| 2026-05-04 18:17 | 55.73852 | 10.42262 | 19053 ft | 452 kts | 86° |
| 2026-05-04 18:18 | 55.74064 | 10.47729 | 18437 ft | 448 kts | 86° |
| 2026-05-04 18:18 | 55.74276 | 10.53225 | 17768 ft | 445 kts | 86° |
| 2026-05-04 18:18 | 55.74483 | 10.58670 | 17110 ft | 440 kts | 86° |
| 2026-05-04 18:18 | 55.74687 | 10.64084 | 16479 ft | 436 kts | 86° |
| 2026-05-04 18:19 | 55.75080 | 10.74735 | 15267 ft | 428 kts | 86° |
| 2026-05-04 18:19 | 55.75271 | 10.79986 | 14673 ft | 424 kts | 86° |
| 2026-05-04 18:19 | 55.75457 | 10.85185 | 14086 ft | 420 kts | 86° |
| 2026-05-04 18:20 | 55.75640 | 10.90351 | 13487 ft | 417 kts | 86° |
| 2026-05-04 18:20 | 55.75819 | 10.95447 | 13054 ft | 412 kts | 86° |
| 2026-05-04 18:20 | 55.75994 | 11.00528 | 12959 ft | 412 kts | 86° |
| 2026-05-04 18:20 | 55.76168 | 11.05611 | 12955 ft | 413 kts | 86° |
| 2026-05-04 18:21 | 55.76338 | 11.10639 | 12953 ft | 413 kts | 86° |
| 2026-05-04 18:21 | 55.76508 | 11.15729 | 12952 ft | 413 kts | 86° |
| 2026-05-04 18:21 | 55.76675 | 11.20811 | 12952 ft | 412 kts | 86° |
| 2026-05-04 18:21 | 55.76841 | 11.25898 | 12952 ft | 413 kts | 86° |
| 2026-05-04 18:22 | 55.77005 | 11.31000 | 12940 ft | 413 kts | 86° |
| 2026-05-04 18:22 | 55.77166 | 11.36085 | 12950 ft | 413 kts | 86° |
| 2026-05-04 18:22 | 55.77326 | 11.41186 | 12950 ft | 413 kts | 87° |
| 2026-05-04 18:22 | 55.77296 | 11.46284 | 12705 ft | 413 kts | 94° |
| 2026-05-04 18:23 | 55.77038 | 11.51292 | 12425 ft | 402 kts | 96° |
| 2026-05-04 18:23 | 55.76755 | 11.56160 | 12127 ft | 390 kts | 96° |
| 2026-05-04 18:23 | 55.76480 | 11.60882 | 11818 ft | 379 kts | 96° |
| 2026-05-04 18:23 | 55.76214 | 11.65472 | 11537 ft | 369 kts | 96° |
| 2026-05-04 18:24 | 55.75955 | 11.69948 | 11249 ft | 360 kts | 96° |
| 2026-05-04 18:24 | 55.75702 | 11.74325 | 10967 ft | 352 kts | 96° |
| 2026-05-04 18:24 | 55.75454 | 11.78599 | 10685 ft | 344 kts | 96° |
| 2026-05-04 18:24 | 55.75211 | 11.82784 | 10412 ft | 337 kts | 96° |
| 2026-05-04 18:25 | 55.74971 | 11.86883 | 10139 ft | 331 kts | 96° |
| 2026-05-04 18:25 | 55.74733 | 11.90922 | 9849 ft | 325 kts | 96° |
| 2026-05-04 18:25 | 55.74500 | 11.94878 | 9570 ft | 320 kts | 96° |
| 2026-05-04 18:25 | 55.74268 | 11.98787 | 9269 ft | 315 kts | 96° |
| 2026-05-04 18:26 | 55.74039 | 12.02614 | 8976 ft | 311 kts | 96° |
| 2026-05-04 18:26 | 55.73811 | 12.06412 | 8685 ft | 308 kts | 96° |
| 2026-05-04 18:26 | 55.73583 | 12.10197 | 8401 ft | 307 kts | 96° |
| 2026-05-04 18:26 | 55.73355 | 12.13954 | 8128 ft | 306 kts | 96° |
| 2026-05-04 18:27 | 55.73127 | 12.17695 | 7848 ft | 304 kts | 96° |
| 2026-05-04 18:27 | 55.72899 | 12.21421 | 7557 ft | 302 kts | 96° |
| 2026-05-04 18:27 | 55.72675 | 12.25065 | 7279 ft | 300 kts | 96° |
| 2026-05-04 18:27 | 55.72448 | 12.28731 | 7026 ft | 299 kts | 96° |
| 2026-05-04 18:28 | 55.72220 | 12.32396 | 6771 ft | 298 kts | 97° |
| 2026-05-04 18:28 | 55.71993 | 12.36029 | 6520 ft | 295 kts | 96° |
| 2026-05-04 18:28 | 55.71766 | 12.39629 | 6258 ft | 290 kts | 96° |
| 2026-05-04 18:28 | 55.71544 | 12.43146 | 6009 ft | 286 kts | 96° |
| 2026-05-04 18:29 | 55.71324 | 12.46629 | 5748 ft | 281 kts | 96° |
| 2026-05-04 18:29 | 55.71202 | 12.50068 | 5478 ft | 277 kts | 84° |
| 2026-05-04 18:29 | 55.71681 | 12.53315 | 5221 ft | 271 kts | 64° |
| 2026-05-04 18:29 | 55.72494 | 12.56299 | 4974 ft | 267 kts | 60° |
| 2026-05-04 18:30 | 55.74174 | 12.62072 | 4521 ft | 257 kts | 59° |
| 2026-05-04 18:30 | 55.75056 | 12.64795 | 4393 ft | 254 kts | 56° |
| 2026-05-04 18:30 | 55.75986 | 12.67451 | 4261 ft | 253 kts | 55° |
| 2026-05-04 18:31 | 55.76919 | 12.70092 | 4129 ft | 252 kts | 55° |
| 2026-05-04 18:31 | 55.77849 | 12.72731 | 4018 ft | 250 kts | 55° |
| 2026-05-04 18:31 | 55.78775 | 12.75351 | 3997 ft | 250 kts | 55° |
| 2026-05-04 18:31 | 55.79695 | 12.77961 | 3999 ft | 249 kts | 55° |
| 2026-05-04 18:32 | 55.80563 | 12.80636 | 3992 ft | 251 kts | 67° |
| 2026-05-04 18:32 | 55.80779 | 12.83645 | 4012 ft | 240 kts | 98° |
| 2026-05-04 18:32 | 55.80140 | 12.86244 | 3992 ft | 226 kts | 133° |
| 2026-05-04 18:32 | 55.78868 | 12.87755 | 3915 ft | 219 kts | 166° |
| 2026-05-04 18:33 | 55.77372 | 12.87937 | 3494 ft | 215 kts | 192° |
| 2026-05-04 18:33 | 55.75963 | 12.87155 | 3135 ft | 210 kts | 210° |
| 2026-05-04 18:33 | 55.74766 | 12.85747 | 3002 ft | 206 kts | 224° |
| 2026-05-04 18:33 | 55.73690 | 12.84069 | 2947 ft | 205 kts | 225° |
| 2026-05-04 18:34 | 55.72629 | 12.82426 | 2708 ft | 199 kts | 225° |
| 2026-05-04 18:34 | 55.71649 | 12.80909 | 2447 ft | 195 kts | 225° |
| 2026-05-04 18:34 | 55.70815 | 12.79612 | 2208 ft | 191 kts | 225° |
| 2026-05-04 18:34 | 55.69826 | 12.78072 | 1940 ft | 186 kts | 225° |
| 2026-05-04 18:35 | 55.68894 | 12.76627 | 1727 ft | 170 kts | 226° |
| 2026-05-04 18:35 | 55.68042 | 12.75301 | 1477 ft | 160 kts | 226° |
| 2026-05-04 18:35 | 55.67220 | 12.74021 | 1283 ft | 151 kts | 225° |
| 2026-05-04 18:35 | 55.66457 | 12.72837 | 1079 ft | 142 kts | 226° |
| 2026-05-04 18:36 | 55.65729 | 12.71703 | 886 ft | 141 kts | 226° |
| 2026-05-04 18:36 | 55.64987 | 12.70550 | 682 ft | 143 kts | 225° |
| 2026-05-04 18:36 | 55.64227 | 12.69370 | 475 ft | 144 kts | 224° |
| 2026-05-04 18:36 | 55.63489 | 12.68220 | 303 ft | 143 kts | 225° |
| 2026-05-04 18:37 | 55.62728 | 12.67048 | 105 ft | 146 kts | 224° |
| 2026-05-04 18:37 | 55.61990 | 12.65901 | 28 ft | 129 kts | 224° |
| 2026-05-04 18:37 | 55.61444 | 12.65050 | 28 ft | 73 kts | 222° |
| 2026-05-04 18:37 | 55.61251 | 12.64582 | 23 ft | 40 kts | 248° |
| 2026-05-04 18:38 | 55.61186 | 12.64239 | 25 ft | 11 kts | 261° |
| 2026-05-04 18:38 | 55.61206 | 12.64137 | 23 ft | 8 kts | 300° |
| 2026-05-04 18:38 | 55.61242 | 12.64101 | 24 ft | 5 kts | 352° |
| 2026-05-04 18:38 | 55.61284 | 12.64119 | 25 ft | 10 kts | 26° |
| 2026-05-04 18:39 | 55.61366 | 12.64213 | 27 ft | 18 kts | 32° |
| 2026-05-04 18:39 | 55.61475 | 12.64337 | 25 ft | 17 kts | 33° |
| 2026-05-04 18:39 | 55.61570 | 12.64447 | 25 ft | 15 kts | 33° |
| 2026-05-04 18:39 | 55.61655 | 12.64545 | 25 ft | 14 kts | 33° |
| 2026-05-04 18:40 | 55.61731 | 12.64625 | 25 ft | 12 kts | 31° |
| 2026-05-04 18:40 | 55.61794 | 12.64693 | 25 ft | 10 kts | 34° |
| 2026-05-04 18:40 | 55.61845 | 12.64757 | 24 ft | 8 kts | 36° |
| 2026-05-04 18:40 | 55.61911 | 12.64840 | 27 ft | 13 kts | 34° |
| 2026-05-04 18:41 | 55.61980 | 12.64920 | 26 ft | 11 kts | 32° |
| 2026-05-04 18:41 | 55.62058 | 12.65009 | 27 ft | 17 kts | 35° |
| 2026-05-04 18:41 | 55.62103 | 12.65062 | 26 ft | 0 kts | 33° |
| 2026-05-04 18:43 | 55.62130 | 12.65093 | 23 ft | 11 kts | 33° |
| 2026-05-04 18:43 | 55.62193 | 12.65164 | 26 ft | 10 kts | 31° |
| 2026-05-04 18:43 | 55.62247 | 12.65148 | 25 ft | 7 kts | 315° |
| 2026-05-04 18:44 | 55.62278 | 12.65064 | 25 ft | 10 kts | 302° |
| 2026-05-04 18:44 | 55.62305 | 12.64990 | 26 ft | 12 kts | 303° |
| 2026-05-04 18:44 | 55.62372 | 12.64809 | 28 ft | 14 kts | 305° |
| 2026-05-04 18:44 | 55.62415 | 12.64780 | 25 ft | 2 kts | 23° |
| 2026-05-04 18:45 | 55.62417 | 12.64830 | 24 ft | 5 kts | 88° |
| 2026-05-04 18:45 | 55.62418 | 12.64882 | 26 ft | 3 kts | 88° |
| 2026-05-04 18:45 | 55.62418 | 12.64916 | 25 ft | 0 kts | 89° |
| 2026-05-04 18:45 | 55.62418 | 12.64917 | 25 ft | 0 kts | 89° |